Madison Mills, Virginia
Current Conditions -  °F | °C
As of 12:55 PM on Tuesday 21 Oct 2014 (Local Time) from KOMH Reporting Station
Clear Clear  
Wind Chill: 70°   Ceiling: Unl
Heat Index: 70°   Visibility: 10mi
Dew Point: 46°   Wind: 3mph
Humidity: 43%   Direction: 160°SSE
Pressure: 29.86"   Gusts: NA
Location:  38.28°N, 78.14°W
Report Text: KOMH 211655Z AUTO 16003KT 10SM CLR 21/08 A2986 RMK AO2
Loading
Personal Weather Stations






























Interactive Weather Map
Tropical Storm Tracking
New forecast layout! Learn more

10-Day Weather Forecast

Advertisements
Track Severe Weather on mobile